KTUL/TUL METAR and TAF weather

Enter ICAO airport designator
Station Type Date Time Source
KTUL METAR 2020/01/20 09:53 UTC NOAA

KTUL 200953Z 35004KT 10SM CLR M06/M09 A3061 RMK AO2 SLP370 T10561094


Station Type Date Time Source
KTUL Decoded METAR 2020/01/20 09:53 UTC NOAA

TULSA INTERNATIONAL AIRPORT, OK, United States (KTUL) 36-12N 95-53W 207M
Jan 20, 2020 - 04:53 AM EST / 2020.01.20 0953 UTC
Wind: from the N (350 degrees) at 5 MPH (4 KT):0
Visibility: 10 mile(s):0
Sky conditions: clear
Temperature: 21.9 F (-5.6 C)
Windchill: 15 F (-9 C):1
Dew Point: 15.1 F (-9.4 C)
Relative Humidity: 74%
Pressure (altimeter): 30.61 in. Hg (1036 hPa)
ob: KTUL 200953Z 35004KT 10SM CLR M06/M09 A3061 RMK AO2 SLP370 T10561094
cycle: 10

Station Type Date Time Source
KTUL TAF 2020/01/20 06:22 UTC NOAA

TAF KTUL 200520Z 2006/2106 36007KT P6SM FEW250
FM202100 04008KT P6SM SKC

Example: see airport list